createdAt,value
2018-06-05T00:02:03.874Z,93.72
2018-06-05T00:04:33.588Z,94.13
2018-06-05T00:07:03.226Z,94.18
2018-06-05T00:09:32.872Z,93.49
2018-06-05T00:12:02.613Z,93.95
2018-06-05T00:14:32.278Z,94.63
2018-06-05T00:17:01.912Z,93.59
2018-06-05T00:19:31.324Z,93.60
2018-06-05T00:22:00.985Z,94.59
2018-06-05T00:24:30.737Z,95.34
2018-06-05T00:27:00.366Z,95.74
2018-06-05T00:29:30.196Z,95.60
2018-06-05T00:31:59.813Z,96.34
2018-06-05T00:34:29.489Z,95.68
2018-06-05T00:36:58.898Z,96.37
2018-06-05T00:39:28.573Z,96.43
2018-06-05T00:41:58.219Z,97.09
2018-06-05T00:44:27.920Z,96.67
2018-06-05T00:46:57.656Z,97.67
2018-06-05T00:49:27.040Z,97.93
2018-06-05T00:52:08.455Z,97.83
2018-06-05T00:54:38.138Z,98.28
2018-06-05T00:57:07.906Z,98.46
2018-06-05T00:59:37.511Z,99.05
2018-06-05T01:02:07.302Z,98.79
2018-06-05T01:04:36.980Z,98.68
2018-06-05T01:07:06.869Z,99.06
2018-06-05T01:09:36.558Z,99.24
2018-06-05T01:12:06.531Z,98.91
2018-06-05T01:14:36.168Z,98.90
2018-06-05T01:17:05.851Z,98.80
2018-06-05T01:21:56.569Z,99.06
2018-06-05T01:24:26.292Z,99.47
2018-06-05T01:26:55.934Z,99.21
2018-06-05T01:29:25.607Z,99.90
2018-06-05T01:31:55.316Z,99.72
2018-06-05T01:34:24.975Z,99.92
2018-06-05T01:36:54.732Z,100.00
2018-06-05T01:39:24.389Z,100.00
2018-06-05T01:41:54.008Z,100.00
2018-06-05T01:44:23.369Z,100.00
2018-06-05T01:46:52.973Z,100.00
2018-06-05T01:49:22.681Z,100.00
2018-06-05T01:51:52.318Z,99.82
2018-06-05T01:54:22.027Z,98.68
2018-06-05T01:56:51.762Z,98.99
2018-06-05T01:59:21.443Z,97.54
2018-06-05T02:01:51.155Z,97.79
2018-06-05T02:04:20.781Z,97.59
2018-06-05T02:06:50.512Z,97.21
2018-06-05T02:09:20.177Z,97.80
2018-06-05T02:11:49.841Z,96.43
2018-06-05T02:14:19.466Z,96.24
2018-06-05T02:16:49.101Z,96.59
2018-06-05T02:19:18.812Z,96.38
2018-06-05T02:21:48.473Z,96.57
2018-06-05T02:24:18.115Z,97.24
2018-06-05T02:26:47.775Z,97.15
2018-06-05T02:29:17.399Z,96.21
2018-06-05T02:31:46.994Z,94.97
2018-06-05T02:34:16.723Z,94.26
2018-06-05T02:36:46.370Z,94.26
2018-06-05T02:39:16.033Z,93.38
2018-06-05T02:41:45.652Z,93.67
2018-06-05T02:44:15.328Z,93.35
2018-06-05T02:46:45.003Z,93.08
2018-06-05T02:49:14.632Z,92.33
2018-06-05T02:51:44.290Z,92.82
2018-06-05T02:54:13.950Z,93.11
2018-06-05T02:56:43.711Z,93.74
2018-06-05T02:59:13.349Z,93.18
2018-06-05T03:01:43.064Z,93.46
2018-06-05T03:04:12.852Z,92.60
2018-06-05T03:06:42.532Z,92.72
2018-06-05T03:09:11.888Z,91.99
2018-06-05T03:11:41.596Z,92.47
2018-06-05T03:14:11.214Z,91.46
2018-06-05T03:16:40.835Z,90.03
2018-06-05T03:19:10.533Z,89.31
2018-06-05T03:21:40.159Z,90.46
2018-06-05T03:24:09.840Z,89.97
2018-06-05T03:26:39.468Z,89.62
2018-06-05T03:29:09.093Z,88.67
2018-06-05T03:31:38.720Z,89.84
2018-06-05T03:34:08.429Z,89.85
2018-06-05T03:36:38.165Z,89.88
2018-06-05T03:39:07.877Z,88.95
2018-06-05T03:41:37.241Z,89.01
2018-06-05T03:44:06.974Z,88.21
2018-06-05T03:46:36.944Z,89.50
2018-06-05T03:49:07.012Z,88.36
2018-06-05T03:51:36.699Z,88.02
2018-06-05T03:54:06.575Z,88.08
2018-06-05T03:56:35.827Z,88.59
2018-06-05T03:59:05.537Z,87.85
2018-06-05T04:01:35.340Z,87.91
2018-06-05T04:04:05.109Z,87.99
2018-06-05T04:06:34.764Z,86.56
2018-06-05T04:09:05.578Z,85.94
2018-06-05T04:11:35.364Z,86.20
2018-06-05T04:14:05.040Z,86.34
2018-06-05T04:16:34.667Z,87.45
2018-06-05T04:19:04.290Z,87.02
2018-06-05T04:21:33.952Z,86.71
2018-06-05T04:24:03.770Z,86.68
2018-06-05T04:26:33.388Z,86.51
2018-06-05T04:29:03.024Z,86.33
2018-06-05T04:31:32.678Z,86.34
2018-06-05T04:34:01.982Z,86.03
2018-06-05T04:36:31.705Z,85.66
2018-06-05T04:39:01.294Z,86.08
2018-06-05T04:41:30.973Z,85.74
2018-06-05T04:44:00.597Z,84.50
2018-06-05T04:46:30.257Z,83.27
2018-06-05T04:48:59.958Z,83.53
2018-06-05T04:51:29.598Z,82.79
2018-06-05T04:53:59.290Z,83.11
2018-06-05T04:56:28.917Z,82.39
2018-06-05T04:58:58.688Z,82.32
2018-06-05T05:01:28.371Z,82.02
2018-06-05T05:03:58.006Z,83.33
2018-06-05T05:06:27.629Z,82.24
2018-06-05T05:08:57.398Z,81.17
2018-06-05T05:11:27.224Z,81.78
2018-06-05T05:13:56.901Z,81.54
2018-06-05T05:16:26.650Z,82.02
2018-06-05T05:18:56.313Z,79.98
2018-06-05T05:21:25.998Z,81.10
2018-06-05T05:23:55.689Z,80.49
2018-06-05T05:26:25.378Z,80.85
2018-06-05T05:28:55.025Z,80.42
2018-06-05T05:31:24.802Z,79.98
2018-06-05T05:33:54.441Z,79.50
2018-06-05T05:36:24.222Z,80.01
2018-06-05T05:38:53.966Z,79.44
2018-06-05T05:41:23.626Z,79.67
2018-06-05T05:43:53.281Z,78.69
2018-06-05T05:46:22.950Z,79.92
2018-06-05T05:48:52.621Z,77.78
2018-06-05T05:51:22.351Z,78.09
2018-06-05T05:53:52.249Z,76.79
2018-06-05T05:56:21.950Z,77.55
2018-06-05T05:58:51.584Z,77.29
2018-06-05T06:01:21.333Z,78.10
2018-06-05T06:03:50.969Z,77.41
2018-06-05T06:06:20.663Z,78.62
2018-06-05T06:08:50.301Z,76.83
2018-06-05T06:11:19.996Z,76.83
2018-06-05T06:13:49.720Z,77.68
2018-06-05T06:16:19.373Z,76.44
2018-06-05T06:18:49.109Z,76.33
2018-06-05T06:21:18.777Z,74.93
2018-06-05T06:23:48.425Z,77.87
2018-06-05T06:26:18.390Z,73.56
2018-06-05T06:28:48.170Z,73.54
2018-06-05T06:31:17.802Z,75.18
2018-06-05T06:33:47.196Z,74.65
2018-06-05T06:36:16.538Z,73.87
2018-06-05T06:38:46.194Z,72.97
2018-06-05T06:41:16.509Z,73.29
2018-06-05T06:43:46.160Z,72.48
2018-06-05T06:46:15.452Z,72.39
2018-06-05T06:48:45.225Z,73.21
2018-06-05T06:51:14.851Z,73.24
2018-06-05T06:53:44.572Z,73.65
2018-06-05T06:56:14.173Z,72.27
2018-06-05T06:58:43.825Z,72.20
2018-06-05T07:01:13.444Z,71.53
2018-06-05T07:03:42.761Z,70.76
2018-06-05T07:06:12.441Z,71.13
2018-06-05T07:08:42.090Z,70.14
2018-06-05T07:11:11.730Z,68.77
2018-06-05T07:13:41.374Z,68.47
2018-06-05T07:16:10.981Z,66.90
2018-06-05T07:18:40.597Z,67.49
2018-06-05T07:21:10.231Z,66.54
2018-06-05T07:23:39.874Z,68.13
2018-06-05T07:26:09.533Z,67.42
2018-06-05T07:28:39.211Z,67.36
2018-06-05T07:31:08.813Z,67.04
2018-06-05T07:33:38.436Z,67.81
2018-06-05T07:36:08.189Z,65.94
2018-06-05T07:38:37.860Z,63.76
2018-06-05T07:41:07.485Z,65.00
2018-06-05T07:43:37.097Z,67.31
2018-06-05T07:46:06.840Z,67.41
2018-06-05T07:48:36.513Z,67.58
2018-06-05T07:51:06.196Z,66.50
2018-06-05T07:53:35.910Z,63.40
2018-06-05T07:56:06.728Z,64.07
2018-06-05T07:58:36.068Z,64.17
2018-06-05T08:01:05.690Z,64.79
2018-06-05T08:03:35.458Z,63.04
2018-06-05T08:06:04.880Z,64.24
2018-06-05T08:08:34.581Z,65.71
2018-06-05T08:11:03.899Z,64.60
2018-06-05T08:13:33.525Z,62.57
2018-06-05T08:16:03.171Z,63.81
2018-06-05T08:18:32.840Z,63.30
2018-06-05T08:21:02.516Z,64.70
2018-06-05T08:23:32.211Z,65.62
2018-06-05T08:26:01.888Z,65.12
2018-06-05T08:28:31.554Z,64.33
2018-06-05T08:31:01.186Z,62.70
2018-06-05T08:33:30.960Z,63.01
2018-06-05T08:36:00.714Z,61.88
2018-06-05T08:38:30.017Z,64.05
2018-06-05T08:40:59.662Z,63.94
2018-06-05T08:43:29.465Z,66.39
2018-06-05T08:45:59.152Z,63.90
2018-06-05T08:48:28.501Z,61.12
2018-06-05T08:50:58.173Z,61.25
2018-06-05T08:53:27.816Z,58.95
2018-06-05T08:55:57.419Z,57.90
2018-06-05T08:58:27.100Z,62.58
2018-06-05T09:00:57.372Z,61.57
2018-06-05T09:03:27.074Z,62.60
2018-06-05T09:05:56.753Z,61.58
2018-06-05T09:08:26.093Z,62.16
2018-06-05T09:10:55.878Z,63.48
2018-06-05T09:13:25.470Z,61.25
2018-06-05T09:15:55.158Z,59.48
2018-06-05T09:18:24.841Z,61.24
2018-06-05T09:20:54.497Z,59.68
2018-06-05T09:23:24.257Z,60.18
2018-06-05T09:25:53.909Z,62.15
2018-06-05T09:28:23.657Z,62.25
2018-06-05T09:30:53.412Z,58.47
2018-06-05T09:33:23.065Z,60.51
2018-06-05T09:35:52.729Z,58.99
2018-06-05T09:38:22.429Z,60.25
2018-06-05T09:40:52.196Z,61.46
2018-06-05T09:43:21.972Z,61.87
2018-06-05T09:45:51.612Z,59.46
2018-06-05T09:48:21.378Z,56.81
2018-06-05T09:50:51.032Z,58.12
2018-06-05T09:53:20.657Z,56.21
2018-06-05T09:55:50.270Z,60.59
2018-06-05T09:58:20.218Z,55.43
2018-06-05T10:00:52.041Z,56.48
2018-06-05T10:03:22.416Z,57.10
2018-06-05T10:05:52.125Z,56.22
2018-06-05T10:08:21.781Z,56.85
2018-06-05T10:10:51.633Z,61.10
2018-06-05T10:13:21.289Z,59.48
2018-06-05T10:15:50.925Z,57.83
2018-06-05T10:18:20.570Z,59.70
2018-06-05T10:20:50.173Z,59.16
2018-06-05T10:23:19.846Z,55.94
2018-06-05T10:25:49.729Z,56.96
2018-06-05T10:28:19.370Z,55.17
2018-06-05T10:30:49.011Z,52.87
2018-06-05T10:33:18.808Z,53.72
2018-06-05T10:35:48.471Z,51.98
2018-06-05T10:38:18.241Z,53.99
2018-06-05T10:40:47.877Z,46.93
2018-06-05T10:43:17.636Z,44.93
2018-06-05T10:45:46.943Z,42.76
2018-06-05T10:48:16.613Z,48.46
2018-06-05T10:50:46.522Z,49.75
2018-06-05T10:53:16.299Z,47.76
2018-06-05T10:55:45.959Z,46.43
2018-06-05T10:58:15.649Z,43.92
2018-06-05T11:00:45.412Z,45.10
2018-06-05T11:03:15.048Z,45.76
2018-06-05T11:05:44.708Z,42.05
2018-06-05T11:08:14.342Z,43.83
2018-06-05T11:10:43.985Z,46.84
2018-06-05T11:13:13.645Z,45.10
2018-06-05T11:15:43.477Z,40.14
2018-06-05T11:18:13.181Z,42.11
2018-06-05T11:20:42.996Z,46.70
2018-06-05T11:23:12.830Z,47.66
2018-06-05T11:25:42.492Z,43.66
2018-06-05T11:28:12.218Z,45.57
2018-06-05T11:30:41.896Z,44.92
2018-06-05T11:33:11.588Z,45.60
2018-06-05T11:35:41.062Z,43.31
2018-06-05T11:38:10.845Z,45.09
2018-06-05T11:40:40.528Z,46.03
2018-06-05T11:43:09.944Z,42.09
2018-06-05T11:45:39.647Z,44.12
2018-06-05T11:48:09.022Z,43.54
2018-06-05T11:50:38.688Z,43.81
2018-06-05T11:53:08.467Z,41.72
2018-06-05T11:55:38.496Z,42.62
2018-06-05T11:58:07.985Z,46.69
2018-06-05T12:00:37.633Z,46.65
2018-06-05T12:03:07.277Z,46.89
2018-06-05T12:05:40.628Z,48.63
2018-06-05T12:08:10.340Z,46.29
2018-06-05T12:10:39.669Z,44.01
2018-06-05T12:13:09.367Z,43.43
2018-06-05T12:15:39.033Z,41.74
2018-06-05T12:18:08.865Z,47.79
2018-06-05T12:20:38.550Z,47.66
2018-06-05T12:23:08.441Z,45.80
2018-06-05T12:25:38.125Z,43.52
2018-06-05T12:28:07.898Z,44.96
2018-06-05T12:30:37.640Z,46.51
2018-06-05T12:33:07.581Z,50.42
2018-06-05T12:35:36.983Z,50.46
2018-06-05T12:38:06.821Z,48.75
2018-06-05T12:40:36.471Z,46.22
2018-06-05T12:43:06.186Z,48.91
2018-06-05T12:45:35.974Z,42.92
2018-06-05T12:48:05.681Z,45.78
2018-06-05T12:50:35.405Z,47.31
2018-06-05T12:53:05.104Z,44.96
2018-06-05T12:55:34.778Z,44.87
2018-06-05T12:58:04.862Z,45.69
2018-06-05T13:00:34.261Z,49.02
2018-06-05T13:03:03.959Z,45.89
2018-06-05T13:05:33.636Z,47.95
2018-06-05T13:08:03.275Z,44.33
2018-06-05T13:10:40.008Z,45.65
2018-06-05T13:13:09.721Z,43.77
2018-06-05T13:15:39.473Z,44.20
2018-06-05T13:18:09.143Z,45.84
2018-06-05T13:20:38.905Z,46.80
2018-06-05T13:23:08.617Z,47.52
2018-06-05T13:25:41.221Z,44.16
2018-06-05T13:28:10.958Z,45.66
2018-06-05T13:30:40.867Z,42.91
2018-06-05T13:33:10.584Z,46.69
2018-06-05T13:35:40.234Z,45.53
2018-06-05T13:38:09.892Z,47.33
2018-06-05T13:40:39.564Z,44.55
2018-06-05T13:43:08.908Z,45.78
2018-06-05T13:45:38.580Z,45.68
2018-06-05T13:48:07.988Z,45.96
2018-06-05T13:50:37.308Z,45.75
2018-06-05T13:53:07.155Z,44.44
2018-06-05T13:55:36.869Z,43.99
2018-06-05T13:58:06.566Z,43.52
2018-06-05T14:00:36.314Z,43.21
2018-06-05T14:03:06.403Z,44.03
2018-06-05T14:05:36.050Z,45.73
2018-06-05T14:08:05.630Z,43.96
2018-06-05T14:10:35.336Z,44.26
2018-06-05T14:13:05.158Z,42.80
2018-06-05T14:15:34.815Z,43.32
2018-06-05T14:18:04.582Z,42.17
2018-06-05T14:20:34.460Z,44.58
2018-06-05T14:23:04.165Z,42.99
2018-06-05T14:25:33.796Z,43.92
2018-06-05T14:28:03.137Z,45.28
2018-06-05T14:30:32.899Z,42.88
2018-06-05T14:33:02.825Z,44.77
2018-06-05T14:35:32.259Z,42.31
2018-06-05T14:38:01.883Z,44.31
2018-06-05T14:40:31.573Z,41.93
2018-06-05T14:43:00.893Z,43.06
2018-06-05T14:45:30.581Z,44.57
2018-06-05T14:48:00.311Z,42.51
2018-06-05T14:50:29.736Z,42.84
2018-06-05T14:52:59.418Z,41.69
2018-06-05T14:55:28.776Z,41.90
2018-06-05T14:57:58.433Z,42.50
2018-06-05T15:00:27.761Z,41.17
2018-06-05T15:02:57.589Z,42.21
2018-06-05T15:05:27.701Z,39.19
2018-06-05T15:07:57.416Z,42.03
2018-06-05T15:10:27.180Z,41.99
2018-06-05T15:12:57.113Z,42.55
2018-06-05T15:15:26.828Z,40.99
2018-06-05T15:17:56.648Z,39.39
2018-06-05T15:20:26.031Z,41.38
2018-06-05T15:22:55.745Z,43.13
2018-06-05T15:25:25.537Z,41.90
2018-06-05T15:27:55.407Z,40.07
2018-06-05T15:30:24.763Z,40.15
2018-06-05T15:32:54.396Z,42.41
2018-06-05T15:35:24.150Z,44.17
2018-06-05T15:37:54.009Z,44.84
2018-06-05T15:40:23.796Z,45.43
2018-06-05T15:42:53.442Z,44.71
2018-06-05T15:45:23.110Z,43.78
2018-06-05T15:47:52.733Z,45.42
2018-06-05T15:50:22.514Z,44.06
2018-06-05T15:52:52.186Z,43.87
2018-06-05T15:55:21.849Z,44.43
2018-06-05T15:57:51.247Z,44.26
2018-06-05T16:00:20.655Z,42.76
2018-06-05T16:02:50.013Z,47.38
2018-06-05T16:05:20.862Z,43.86
2018-06-05T16:07:51.668Z,48.92
2018-06-05T16:10:21.382Z,46.10
2018-06-05T16:12:51.084Z,46.30
2018-06-05T16:15:20.765Z,49.29
2018-06-05T16:17:50.448Z,45.64
2018-06-05T16:20:20.734Z,50.33
2018-06-05T16:22:50.463Z,51.25
2018-06-05T16:25:20.208Z,53.56
2018-06-05T16:27:49.944Z,53.03
2018-06-05T16:30:19.680Z,54.05
2018-06-05T16:32:49.517Z,56.50
2018-06-05T16:35:19.260Z,56.94
2018-06-05T16:37:49.019Z,59.24
2018-06-05T16:40:18.682Z,57.94
2018-06-05T16:42:48.529Z,59.03
2018-06-05T16:45:18.172Z,59.63
2018-06-05T16:47:47.920Z,58.04
2018-06-05T16:50:17.618Z,58.38
2018-06-05T16:52:47.295Z,59.05
2018-06-05T16:55:17.008Z,60.63
2018-06-05T16:57:46.701Z,58.68
2018-06-05T17:00:16.405Z,58.67
2018-06-05T17:02:46.070Z,58.29
2018-06-05T17:05:15.782Z,60.79
2018-06-05T17:07:45.458Z,61.13
2018-06-05T17:10:15.213Z,59.92
2018-06-05T17:12:44.899Z,61.20
2018-06-05T17:15:14.584Z,62.82
2018-06-05T17:17:44.383Z,62.21
2018-06-05T17:20:15.123Z,63.69
2018-06-05T17:22:45.812Z,62.21
2018-06-05T17:25:16.515Z,60.68
2018-06-05T17:27:46.376Z,61.06
2018-06-05T17:30:16.212Z,62.76
2018-06-05T17:32:45.985Z,60.22
2018-06-05T17:35:15.603Z,61.56
2018-06-05T17:37:44.936Z,62.72
2018-06-05T17:40:14.738Z,63.42
2018-06-05T17:42:44.053Z,61.71
2018-06-05T17:45:13.844Z,62.44
2018-06-05T17:47:43.172Z,64.27
2018-06-05T17:50:12.810Z,63.38
2018-06-05T17:52:42.509Z,62.21
2018-06-05T17:55:12.284Z,63.75
2018-06-05T17:57:42.060Z,63.25
2018-06-05T18:00:11.834Z,63.95
2018-06-05T18:02:41.530Z,62.35
2018-06-05T18:05:10.859Z,64.93
2018-06-05T18:07:40.550Z,65.19
2018-06-05T18:10:09.900Z,66.31
2018-06-05T18:12:39.648Z,63.61
2018-06-05T18:15:09.345Z,63.76
2018-06-05T18:17:39.118Z,64.79
2018-06-05T18:20:08.947Z,64.71
2018-06-05T18:22:38.615Z,65.55
2018-06-05T18:25:07.963Z,65.43
2018-06-05T18:27:37.637Z,66.75
2018-06-05T18:30:07.375Z,65.83
2018-06-05T18:32:37.190Z,67.91
2018-06-05T18:35:06.981Z,67.79
2018-06-05T18:37:36.373Z,66.95
2018-06-05T18:40:06.112Z,66.53
2018-06-05T18:42:35.844Z,67.80
2018-06-05T18:45:05.770Z,67.56
2018-06-05T18:47:35.464Z,67.57
2018-06-05T18:50:05.321Z,67.84
2018-06-05T18:52:35.023Z,68.61
2018-06-05T18:55:04.782Z,67.18
2018-06-05T18:57:34.538Z,68.18
2018-06-05T19:00:04.323Z,68.96
2018-06-05T19:02:33.751Z,68.88
2018-06-05T19:05:03.613Z,69.24
2018-06-05T19:07:33.277Z,68.93
2018-06-05T19:10:03.023Z,69.57
2018-06-05T19:12:32.684Z,69.64
2018-06-05T19:15:02.507Z,69.41
2018-06-05T19:17:31.872Z,69.59
2018-06-05T19:20:01.640Z,68.66
2018-06-05T19:22:31.329Z,69.50
2018-06-05T19:25:00.999Z,68.96
2018-06-05T19:27:30.674Z,70.82
2018-06-05T19:30:00.330Z,71.31
2018-06-05T19:32:30.035Z,71.39
2018-06-05T19:34:59.826Z,72.90
2018-06-05T19:37:29.594Z,73.15
2018-06-05T19:39:59.303Z,71.74
2018-06-05T19:42:29.000Z,71.59
2018-06-05T19:44:58.697Z,72.09
2018-06-05T19:47:28.374Z,71.73
2018-06-05T19:49:57.815Z,72.25
2018-06-05T19:52:27.608Z,72.36
2018-06-05T19:54:57.355Z,71.92
2018-06-05T19:57:27.031Z,71.77
2018-06-05T19:59:57.828Z,72.56
2018-06-05T20:02:27.486Z,72.53
2018-06-05T20:04:57.205Z,72.28
2018-06-05T20:07:26.944Z,73.72
2018-06-05T20:09:56.694Z,74.44
2018-06-05T20:12:27.511Z,73.50
2018-06-05T20:14:56.798Z,72.31
2018-06-05T20:17:26.522Z,73.47
2018-06-05T20:19:56.231Z,73.55
2018-06-05T20:22:25.929Z,74.61
2018-06-05T20:24:55.725Z,75.31
2018-06-05T20:27:25.432Z,75.45
2018-06-05T20:29:55.089Z,74.90
2018-06-05T20:32:24.848Z,74.26
2018-06-05T20:34:54.233Z,75.36
2018-06-05T20:37:24.006Z,76.90
2018-06-05T20:39:53.679Z,76.65
2018-06-05T20:42:23.414Z,77.49
2018-06-05T20:44:53.081Z,78.41
2018-06-05T20:47:22.896Z,79.68
2018-06-05T20:49:52.515Z,79.98
2018-06-05T20:52:22.320Z,79.52
2018-06-05T20:54:51.960Z,79.45
2018-06-05T20:57:21.297Z,80.77
2018-06-05T20:59:51.141Z,80.15
2018-06-05T21:02:20.925Z,79.33
2018-06-05T21:04:50.613Z,79.47
2018-06-05T21:07:19.945Z,79.75
2018-06-05T21:09:49.655Z,81.25
2018-06-05T21:12:19.379Z,81.51
2018-06-05T21:14:49.189Z,81.48
2018-06-05T21:17:18.879Z,81.97
2018-06-05T21:19:48.300Z,82.65
2018-06-05T21:22:18.047Z,83.48
2018-06-05T21:24:47.412Z,83.60
2018-06-05T21:27:17.116Z,82.64
2018-06-05T21:29:46.849Z,83.58
2018-06-05T21:32:16.701Z,83.80
2018-06-05T21:34:46.023Z,84.46
2018-06-05T21:37:15.694Z,83.01
2018-06-05T21:39:45.375Z,83.66
2018-06-05T21:42:14.709Z,84.53
2018-06-05T21:44:44.356Z,84.99
2018-06-05T21:47:14.162Z,85.37
2018-06-05T21:49:43.967Z,86.92
2018-06-05T21:52:13.645Z,87.41
2018-06-05T21:54:43.407Z,87.44
2018-06-05T21:57:13.057Z,88.19
2018-06-05T21:59:42.437Z,88.85
2018-06-05T22:02:12.132Z,89.82
2018-06-05T22:04:41.925Z,89.88
2018-06-05T22:07:12.721Z,90.25
2018-06-05T22:09:42.420Z,89.77
2018-06-05T22:12:12.216Z,90.13
2018-06-05T22:14:41.554Z,91.27
2018-06-05T22:17:12.297Z,91.53
2018-06-05T22:19:41.946Z,92.27
2018-06-05T22:22:11.605Z,92.37
2018-06-05T22:24:41.322Z,92.53
2018-06-05T22:27:10.974Z,92.86
2018-06-05T22:29:40.793Z,92.85
2018-06-05T22:32:10.558Z,93.36
2018-06-05T22:34:40.316Z,93.42
2018-06-05T22:37:10.107Z,93.79
2018-06-05T22:39:39.600Z,93.60
2018-06-05T22:42:09.385Z,94.58
2018-06-05T22:44:39.053Z,95.07
2018-06-05T22:47:08.718Z,95.12
2018-06-05T22:49:38.374Z,95.62
2018-06-05T22:52:08.076Z,95.40
2018-06-05T22:54:37.620Z,95.65
2018-06-05T22:57:07.309Z,95.64
2018-06-05T22:59:36.622Z,95.98
2018-06-05T23:02:06.522Z,96.17
2018-06-05T23:04:36.897Z,96.46
2018-06-05T23:07:06.607Z,96.81
2018-06-05T23:09:36.311Z,96.20
2018-06-05T23:12:06.113Z,97.06
2018-06-05T23:14:35.795Z,96.84
2018-06-05T23:17:05.624Z,97.26
2018-06-05T23:19:34.937Z,97.17
2018-06-05T23:22:04.633Z,97.70
2018-06-05T23:24:33.979Z,97.77
2018-06-05T23:27:03.648Z,98.19
2018-06-05T23:29:33.291Z,98.21
2018-06-05T23:32:02.984Z,98.01
2018-06-05T23:34:32.724Z,98.38
2018-06-05T23:37:02.402Z,98.09
2018-06-05T23:39:32.035Z,98.42
2018-06-05T23:42:01.745Z,98.25
2018-06-05T23:44:31.092Z,98.90
2018-06-05T23:47:00.766Z,98.75
2018-06-05T23:49:30.518Z,99.15
2018-06-05T23:52:00.257Z,99.72
2018-06-05T23:54:29.941Z,99.67
2018-06-05T23:56:59.621Z,99.70
2018-06-05T23:59:29.265Z,99.54
